Pagrindinis puslapis
METAR-TAF:

METAR-TAF

Oro uostai :

Olbija, Italija

platuma: 40-54N, ilguma: 009-31E, Aukštis: 11 m

Dabartinis oras

Ataskaita buvo paskelbta 27 minutes, ne 05:50 UTC
Vėjas 15 kt iš Vakarų/Pietvakarių
Temperatūra 18°C
Drėgmė 64%
Slėgis 1017 hPa
Matomumas 10 km arba daugiau

METAR: LIEO 080550Z AUTO 24015KT 9999 NCD 18/11 Q1017

Laikas: 08:17 (06:17 UTC)

Prognozė

Ataskaita buvo paskelbta 1 valandą ir 17 minutes, ne 05:00 UTC
Prognozė galioja nuo 08 metu 06 UTC su 09 metu 06 UTC
Vėjas 12 kt iš Vakarų
Matomumas 10 km arba daugiau
nėra debesų žemiau 1500 m ir nėra kamuolinių lietaus debesų
Tapsmas
nuo 08 metu 12 UTC su 08 metu 14 UTC
Vėjas 12 kt iš Šiaurės Rytų
Tapsmas
nuo 08 metu 18 UTC su 08 metu 20 UTC
Vėjas 5 kt nuo kintamojo kryptimis

TAF: LIEO 080500Z 0806/0906 26012KT CAVOK BECMG 0812/0814 04012KT BECMG 0818/0820 VRB05KT

Orai ataskaitas ir orų prognozės (METAR, TAF).

turimą stotys yra geltonos ir raudonos taškus žemėlapyje.

Perkelti pele per norėdami pamatyti stoties vardą.

Tada spustelėkite, norėdami matyti oro stebėjimo ir prognozės.

Norėdami pakeisti žemėlapį: spustelėkite ant žalios mygtukų su juodo kryžiaus žemyn,; žalią mygtuką su brūkšneliu, jei norite nutolinti; arba žalių rodyklių gretimoms žemėlapius.


METAR-TAF: